createdAt,value
2022-10-06T00:02:34.256Z,8.90
2022-10-06T00:07:37.868Z,10.10
2022-10-06T00:12:45.694Z,9.20
2022-10-06T00:17:49.108Z,9.30
2022-10-06T00:22:52.668Z,8.20
2022-10-06T00:27:56.833Z,9.00
2022-10-06T00:33:03.680Z,9.60
2022-10-06T00:38:06.751Z,9.30
2022-10-06T00:43:44.078Z,9.10
2022-10-06T00:48:52.632Z,9.40
2022-10-06T00:53:58.336Z,9.70
2022-10-06T00:59:01.603Z,9.30
2022-10-06T01:04:12.041Z,8.10
2022-10-06T01:09:17.729Z,8.90
2022-10-06T01:14:23.667Z,9.10
2022-10-06T01:19:44.063Z,9.70
2022-10-06T01:24:51.092Z,10.00
2022-10-06T01:29:56.059Z,9.90
2022-10-06T01:34:59.228Z,10.40
2022-10-06T01:40:02.666Z,9.60
2022-10-06T01:45:08.063Z,9.90
2022-10-06T01:50:11.163Z,10.90
2022-10-06T02:00:18.892Z,8.90
2022-10-06T02:05:22.012Z,10.50
2022-10-06T02:10:25.279Z,10.20
2022-10-06T02:20:33.582Z,10.60
2022-10-06T02:25:36.751Z,9.70
2022-10-06T02:30:39.838Z,10.40
2022-10-06T02:35:44.229Z,9.90
2022-10-06T02:40:47.353Z,8.70
2022-10-06T02:45:58.573Z,9.80
2022-10-06T02:51:07.299Z,10.50
2022-10-06T02:56:13.310Z,10.50
2022-10-06T03:01:19.610Z,10.60
2022-10-06T03:06:26.393Z,10.30
2022-10-06T03:11:32.477Z,10.50
2022-10-06T03:16:39.469Z,10.20
2022-10-06T03:21:44.402Z,9.30
2022-10-06T03:26:48.388Z,10.20
2022-10-06T03:31:51.627Z,10.40
2022-10-06T03:36:54.769Z,9.70
2022-10-06T03:41:57.878Z,9.60
2022-10-06T03:52:04.456Z,11.60
2022-10-06T04:02:11.867Z,8.50
2022-10-06T04:07:15.167Z,11.10
2022-10-06T04:12:18.219Z,11.80
2022-10-06T04:17:21.581Z,10.90
2022-10-06T04:22:24.740Z,11.90
2022-10-06T04:27:27.867Z,11.60
2022-10-06T04:32:31.106Z,12.60
2022-10-06T04:42:37.894Z,12.80
2022-10-06T04:47:41.221Z,12.40
2022-10-06T04:52:45.064Z,12.80
2022-10-06T05:02:58.289Z,11.90
2022-10-06T05:08:02.803Z,11.50
2022-10-06T05:13:06.586Z,11.20
2022-10-06T05:18:10.387Z,10.70
2022-10-06T05:23:14.030Z,8.60
2022-10-06T05:28:17.718Z,9.90
2022-10-06T05:33:21.286Z,10.40
2022-10-06T05:38:24.711Z,10.30
2022-10-06T05:43:29.246Z,10.40
2022-10-06T05:48:34.522Z,8.80
2022-10-06T05:53:38.698Z,9.80
2022-10-06T05:58:44.377Z,9.50
2022-10-06T06:03:52.187Z,10.50
2022-10-06T06:09:01.306Z,8.80
2022-10-06T06:14:06.153Z,10.20
2022-10-06T06:19:12.549Z,8.90
2022-10-06T06:24:15.867Z,9.40
2022-10-06T06:29:19.116Z,8.60
2022-10-06T06:34:22.467Z,8.40
2022-10-06T06:39:25.812Z,7.70
2022-10-06T06:44:31.069Z,6.30
2022-10-06T06:49:34.369Z,5.50
2022-10-06T06:54:37.499Z,5.40
2022-10-06T06:59:41.742Z,5.40
2022-10-06T07:04:45.117Z,5.30
2022-10-06T07:09:48.425Z,5.20
2022-10-06T07:15:11.299Z,4.90
2022-10-06T07:20:33.044Z,4.20
2022-10-06T07:25:37.271Z,4.00
2022-10-06T07:30:41.173Z,3.40
2022-10-06T07:35:44.607Z,3.40
2022-10-06T07:41:17.906Z,4.10
2022-10-06T07:46:19.725Z,3.20
2022-10-06T07:51:27.565Z,3.20
2022-10-06T07:56:32.145Z,3.40
2022-10-06T08:01:35.637Z,3.20
2022-10-06T08:06:40.003Z,3.40
2022-10-06T08:11:45.652Z,3.10
2022-10-06T08:16:49.081Z,3.00
2022-10-06T08:21:52.596Z,2.70
2022-10-06T08:26:55.803Z,2.40
2022-10-06T08:31:59.823Z,2.50
2022-10-06T08:37:19.236Z,2.90
2022-10-06T08:42:43.621Z,2.40
2022-10-06T08:48:15.810Z,2.60
2022-10-06T08:53:30.182Z,2.30
2022-10-06T08:58:47.559Z,2.30
2022-10-06T09:03:54.210Z,2.00
2022-10-06T09:09:12.982Z,2.40
2022-10-06T09:14:27.758Z,2.10
2022-10-06T09:19:33.994Z,2.10
2022-10-06T09:24:49.744Z,2.30
2022-10-06T09:29:53.598Z,2.00
2022-10-06T09:35:04.617Z,2.10
2022-10-06T09:40:38.903Z,2.10
2022-10-06T09:45:43.244Z,2.10
2022-10-06T09:51:07.739Z,2.00
2022-10-06T09:56:21.694Z,2.10
2022-10-06T10:01:30.437Z,2.20
2022-10-06T10:06:35.380Z,1.90
2022-10-06T10:11:57.531Z,2.30
2022-10-06T10:17:15.076Z,2.10
2022-10-06T10:22:40.404Z,1.90
2022-10-06T10:27:52.622Z,2.10
2022-10-06T10:33:01.615Z,1.70
2022-10-06T10:38:22.502Z,1.40
2022-10-06T10:43:29.894Z,1.70
2022-10-06T10:48:57.943Z,1.50
2022-10-06T10:54:05.502Z,1.70
2022-10-06T10:59:21.093Z,1.80
2022-10-06T11:04:25.223Z,1.60
2022-10-06T11:10:00.082Z,1.60
2022-10-06T11:15:22.021Z,1.60
2022-10-06T11:20:30.968Z,1.80
2022-10-06T11:25:45.231Z,1.50
2022-10-06T11:30:51.713Z,1.60
2022-10-06T11:35:55.024Z,1.60
2022-10-06T11:41:18.919Z,1.40
2022-10-06T11:46:32.478Z,1.40
2022-10-06T11:51:35.882Z,1.30
2022-10-06T11:56:40.114Z,1.40
2022-10-06T12:01:48.109Z,1.40
2022-10-06T12:06:52.368Z,1.30
2022-10-06T12:12:15.132Z,2.40
2022-10-06T12:17:23.057Z,1.30
2022-10-06T12:22:41.105Z,1.30
2022-10-06T12:28:12.108Z,1.20
2022-10-06T12:33:19.981Z,1.50
2022-10-06T12:38:33.330Z,1.30
2022-10-06T12:43:54.251Z,1.30
2022-10-06T12:49:15.482Z,1.50
2022-10-06T12:54:29.445Z,1.30
2022-10-06T12:59:35.533Z,1.90
2022-10-06T13:04:49.715Z,1.40
2022-10-06T13:10:20.544Z,1.80
2022-10-06T13:15:39.477Z,1.70
2022-10-06T13:20:54.025Z,1.80
2022-10-06T13:26:02.928Z,1.50
2022-10-06T13:31:27.550Z,1.90
2022-10-06T13:36:35.150Z,1.20
2022-10-06T13:41:45.522Z,1.70
2022-10-06T13:46:54.563Z,1.40
2022-10-06T13:52:02.746Z,1.70
2022-10-06T13:57:31.706Z,1.50
2022-10-06T14:02:35.485Z,1.60
2022-10-06T14:07:44.274Z,1.60
2022-10-06T14:12:48.817Z,1.40
2022-10-06T14:18:01.831Z,1.50
2022-10-06T14:28:29.898Z,1.70
2022-10-06T14:33:34.856Z,1.40
2022-10-06T14:38:39.172Z,1.30
2022-10-06T14:44:35.560Z,1.60
2022-10-06T14:49:39.860Z,1.30
2022-10-06T14:54:43.980Z,1.70
2022-10-06T14:59:48.719Z,1.70
2022-10-06T15:04:52.534Z,1.50
2022-10-06T15:09:57.379Z,2.10
2022-10-06T15:15:00.411Z,1.50
2022-10-06T15:25:30.458Z,1.60
2022-10-06T15:30:33.867Z,2.60
2022-10-06T15:35:37.179Z,1.90
2022-10-06T15:40:40.286Z,2.40
2022-10-06T15:45:55.576Z,3.40
2022-10-06T15:50:58.782Z,2.90
2022-10-06T15:56:01.996Z,2.90
2022-10-06T16:01:05.512Z,3.00
2022-10-06T16:06:09.636Z,12.40
2022-10-06T16:11:12.845Z,3.10
2022-10-06T16:16:16.550Z,2.10
2022-10-06T16:21:19.779Z,2.70
2022-10-06T16:31:29.628Z,2.80
2022-10-06T16:36:32.882Z,4.20
2022-10-06T16:46:39.970Z,1.80
2022-10-06T16:51:46.249Z,2.10
2022-10-06T16:56:55.358Z,2.10
2022-10-06T17:01:59.386Z,2.50
2022-10-06T17:07:04.517Z,2.10
2022-10-06T17:12:07.724Z,3.00
2022-10-06T17:17:11.445Z,4.10
2022-10-06T17:22:14.755Z,7.00
2022-10-06T17:37:25.813Z,5.70
2022-10-06T17:42:29.022Z,6.80
2022-10-06T17:47:32.534Z,7.70
2022-10-06T17:52:38.455Z,4.40
2022-10-06T17:57:42.536Z,6.30
2022-10-06T18:02:46.712Z,7.10
2022-10-06T18:07:50.591Z,9.10
2022-10-06T18:12:53.805Z,6.80
2022-10-06T18:23:00.216Z,20.30
2022-10-06T18:28:03.561Z,28.40
2022-10-06T18:38:32.475Z,23.40
2022-10-06T18:43:35.842Z,32.20
2022-10-06T18:54:04.253Z,18.90
2022-10-06T18:59:13.385Z,14.40
2022-10-06T19:04:21.583Z,13.90
2022-10-06T19:09:26.144Z,13.60
2022-10-06T19:14:36.502Z,13.50
2022-10-06T19:19:46.198Z,12.80
2022-10-06T19:24:50.112Z,12.60
2022-10-06T19:29:56.956Z,14.90
2022-10-06T19:35:00.908Z,13.40
2022-10-06T19:40:08.226Z,16.80
2022-10-06T19:45:13.258Z,25.40
2022-10-06T19:50:18.335Z,25.90
2022-10-06T19:55:23.782Z,23.90
2022-10-06T20:00:27.595Z,20.70
2022-10-06T20:05:30.701Z,18.90
2022-10-06T20:10:35.548Z,14.90
2022-10-06T20:15:39.389Z,11.10
2022-10-06T20:20:42.898Z,7.20
2022-10-06T20:25:46.092Z,7.60
2022-10-06T20:30:52.236Z,7.40
2022-10-06T20:35:55.589Z,7.50
2022-10-06T20:46:02.044Z,19.40
2022-10-06T20:51:13.312Z,16.80
2022-10-06T20:56:16.709Z,6.10
2022-10-06T21:06:24.970Z,4.90
2022-10-06T21:11:28.653Z,6.50
2022-10-06T21:16:34.969Z,6.90
2022-10-06T21:21:38.483Z,6.40
2022-10-06T21:26:42.758Z,5.90
2022-10-06T21:31:47.220Z,6.30
2022-10-06T21:36:50.311Z,5.40
2022-10-06T21:41:53.776Z,5.90
2022-10-06T21:46:57.363Z,6.20
2022-10-06T21:52:05.103Z,5.50
2022-10-06T21:57:08.599Z,5.50
2022-10-06T22:02:11.862Z,6.10
2022-10-06T22:07:15.069Z,5.40
2022-10-06T22:12:18.344Z,4.80
2022-10-06T22:17:22.065Z,5.40
2022-10-06T22:22:25.479Z,5.70
2022-10-06T22:27:28.584Z,5.20
2022-10-06T22:32:31.792Z,7.00
2022-10-06T22:37:34.794Z,5.30
2022-10-06T22:42:40.153Z,5.60
2022-10-06T22:47:43.507Z,5.30
2022-10-06T22:52:46.774Z,5.30
2022-10-06T22:57:49.879Z,7.30
2022-10-06T23:02:53.108Z,5.20
2022-10-06T23:07:56.194Z,5.40
2022-10-06T23:13:00.267Z,6.40
2022-10-06T23:18:03.530Z,6.20
2022-10-06T23:23:07.049Z,5.50
2022-10-06T23:28:10.178Z,5.50
2022-10-06T23:33:13.565Z,5.40
2022-10-06T23:43:20.185Z,4.80
2022-10-06T23:48:23.598Z,5.40
2022-10-06T23:53:28.343Z,5.80
2022-10-06T23:58:31.858Z,5.80
